createdAt,value
2023-05-20T00:00:05.340Z,83.09
2023-05-20T00:02:33.733Z,81.88
2023-05-20T00:05:01.849Z,81.21
2023-05-20T00:07:29.651Z,80.53
2023-05-20T00:09:57.825Z,79.89
2023-05-20T00:12:25.577Z,79.70
2023-05-20T00:14:55.224Z,78.70
2023-05-20T00:17:24.013Z,78.92
2023-05-20T00:19:51.931Z,78.55
2023-05-20T00:22:20.114Z,78.44
2023-05-20T00:24:51.382Z,78.11
2023-05-20T00:27:19.413Z,77.88
2023-05-20T00:29:47.419Z,78.10
2023-05-20T00:32:15.498Z,77.74
2023-05-20T00:34:44.546Z,77.73
2023-05-20T00:37:12.481Z,77.29
2023-05-20T00:39:40.012Z,77.16
2023-05-20T00:42:08.175Z,76.53
2023-05-20T00:44:35.944Z,76.91
2023-05-20T00:47:04.352Z,77.16
2023-05-20T00:49:32.464Z,77.90
2023-05-20T00:52:00.839Z,78.04
2023-05-20T00:54:28.834Z,77.97
2023-05-20T00:56:56.256Z,77.25
2023-05-20T00:59:23.952Z,76.82
2023-05-20T01:01:52.150Z,76.71
2023-05-20T01:04:20.035Z,76.25
2023-05-20T01:06:47.983Z,76.46
2023-05-20T01:09:15.650Z,76.52
2023-05-20T01:11:48.486Z,76.75
2023-05-20T01:14:16.248Z,76.94
2023-05-20T01:16:43.667Z,76.99
2023-05-20T01:19:22.088Z,76.88
2023-05-20T01:21:50.193Z,77.25
2023-05-20T01:24:18.808Z,77.20
2023-05-20T01:26:48.501Z,77.09
2023-05-20T01:29:18.715Z,77.68
2023-05-20T01:31:46.563Z,78.00
2023-05-20T01:34:14.611Z,78.08
2023-05-20T01:36:42.533Z,79.01
2023-05-20T01:39:10.391Z,78.77
2023-05-20T01:41:38.365Z,79.10
2023-05-20T01:44:06.069Z,79.77
2023-05-20T01:46:34.667Z,80.12
2023-05-20T01:49:02.665Z,80.47
2023-05-20T01:51:31.256Z,80.20
2023-05-20T01:53:59.125Z,80.67
2023-05-20T01:56:26.755Z,80.76
2023-05-20T01:58:54.967Z,80.51
2023-05-20T02:01:22.782Z,80.47
2023-05-20T02:03:50.698Z,80.51
2023-05-20T02:06:18.795Z,80.16
2023-05-20T02:08:47.178Z,79.55
2023-05-20T02:11:15.250Z,79.79
2023-05-20T02:13:43.596Z,79.89
2023-05-20T02:16:11.598Z,79.95
2023-05-20T02:18:39.884Z,80.05
2023-05-20T02:21:11.047Z,79.90
2023-05-20T02:23:39.030Z,79.67
2023-05-20T02:26:07.110Z,79.50
2023-05-20T02:28:34.682Z,79.17
2023-05-20T02:31:02.200Z,79.27
2023-05-20T02:33:30.055Z,79.48
2023-05-20T02:35:57.806Z,79.53
2023-05-20T02:38:25.662Z,79.98
2023-05-20T02:40:53.640Z,79.48
2023-05-20T02:43:21.575Z,79.12
2023-05-20T02:45:49.353Z,77.98
2023-05-20T02:48:17.896Z,77.81
2023-05-20T02:50:46.655Z,77.33
2023-05-20T02:53:14.360Z,77.40
2023-05-20T02:55:41.571Z,77.19
2023-05-20T02:58:09.515Z,76.44
2023-05-20T03:00:41.080Z,76.24
2023-05-20T03:03:10.305Z,75.85
2023-05-20T03:05:38.717Z,74.86
2023-05-20T03:08:10.527Z,74.92
2023-05-20T03:10:38.966Z,75.24
2023-05-20T03:13:08.858Z,74.56
2023-05-20T03:15:36.924Z,74.84
2023-05-20T03:18:05.277Z,75.16
2023-05-20T03:20:33.448Z,74.87
2023-05-20T03:23:02.156Z,74.47
2023-05-20T03:25:29.944Z,74.62
2023-05-20T03:27:58.447Z,74.82
2023-05-20T03:30:26.541Z,74.69
2023-05-20T03:32:55.793Z,74.84
2023-05-20T03:35:23.997Z,74.70
2023-05-20T03:37:53.297Z,75.01
2023-05-20T03:43:03.751Z,75.51
2023-05-20T03:45:34.063Z,74.94
2023-05-20T03:48:03.665Z,75.13
2023-05-20T03:53:20.943Z,75.63
2023-05-20T03:55:49.555Z,76.13
2023-05-20T03:58:17.539Z,76.29
2023-05-20T04:00:46.392Z,76.32
2023-05-20T04:03:13.860Z,76.63
2023-05-20T04:05:45.853Z,76.56
2023-05-20T04:10:49.952Z,77.04
2023-05-20T04:13:20.666Z,77.14
2023-05-20T04:15:49.697Z,77.36
2023-05-20T04:18:18.053Z,77.11
2023-05-20T04:20:46.617Z,76.92
2023-05-20T04:23:15.068Z,76.62
2023-05-20T04:25:44.820Z,76.41
2023-05-20T04:28:14.110Z,76.04
2023-05-20T04:30:42.486Z,75.80
2023-05-20T04:33:11.349Z,75.49
2023-05-20T04:35:41.766Z,75.44
2023-05-20T04:38:09.381Z,74.85
2023-05-20T04:40:37.290Z,74.53
2023-05-20T04:43:04.956Z,74.12
2023-05-20T04:45:34.268Z,73.44
2023-05-20T04:48:02.543Z,73.34
2023-05-20T04:50:30.574Z,72.65
2023-05-20T04:52:59.056Z,71.81
2023-05-20T04:55:27.561Z,71.58
2023-05-20T04:58:01.509Z,71.42
2023-05-20T05:00:29.464Z,71.49
2023-05-20T05:02:57.083Z,71.40
2023-05-20T05:05:24.980Z,71.40
2023-05-20T05:07:52.888Z,71.09
2023-05-20T05:10:21.944Z,70.38
2023-05-20T05:12:49.669Z,70.15
2023-05-20T05:15:18.122Z,70.17
2023-05-20T05:17:45.933Z,70.16
2023-05-20T05:20:13.772Z,70.46
2023-05-20T05:22:41.664Z,71.04
2023-05-20T05:25:12.397Z,71.15
2023-05-20T05:27:39.282Z,70.98
2023-05-20T05:30:10.362Z,71.17
2023-05-20T05:32:38.825Z,70.41
2023-05-20T05:35:08.503Z,69.72
2023-05-20T05:37:36.638Z,68.49
2023-05-20T05:40:05.620Z,67.45
2023-05-20T05:42:36.869Z,67.59
2023-05-20T05:45:06.845Z,67.29
2023-05-20T05:47:34.844Z,67.04
2023-05-20T05:50:02.822Z,66.67
2023-05-20T05:52:30.351Z,66.48
2023-05-20T05:54:58.678Z,66.06
2023-05-20T05:57:26.703Z,65.83
2023-05-20T05:59:57.260Z,66.12
2023-05-20T06:02:25.359Z,66.65
2023-05-20T06:04:53.651Z,67.51
2023-05-20T06:07:21.565Z,66.55
2023-05-20T06:09:49.159Z,66.67
2023-05-20T06:12:17.218Z,65.96
2023-05-20T06:14:44.846Z,66.03
2023-05-20T06:17:12.341Z,66.31
2023-05-20T06:19:40.284Z,66.65
2023-05-20T06:22:08.240Z,66.67
2023-05-20T06:24:35.750Z,67.25
2023-05-20T06:27:03.736Z,67.73
2023-05-20T06:29:32.215Z,68.24
2023-05-20T06:32:00.480Z,68.63
2023-05-20T06:34:28.688Z,68.48
2023-05-20T06:37:00.301Z,68.42
2023-05-20T06:39:28.664Z,67.80
2023-05-20T06:41:56.622Z,67.22
2023-05-20T06:44:24.226Z,67.67
2023-05-20T06:46:51.911Z,67.87
2023-05-20T06:49:19.674Z,67.76
2023-05-20T06:51:47.693Z,67.71
2023-05-20T06:54:15.160Z,67.16
2023-05-20T06:56:43.029Z,67.11
2023-05-20T06:59:10.683Z,66.58
2023-05-20T07:01:38.618Z,67.21
2023-05-20T07:04:26.685Z,67.42
2023-05-20T07:06:54.257Z,66.88
2023-05-20T07:09:22.184Z,66.61
2023-05-20T07:11:50.434Z,67.12
2023-05-20T07:14:17.895Z,67.19
2023-05-20T07:16:45.429Z,67.42
2023-05-20T07:19:13.488Z,66.98
2023-05-20T07:21:42.025Z,67.71
2023-05-20T07:24:09.614Z,68.21
2023-05-20T07:26:38.012Z,68.70
2023-05-20T07:29:05.983Z,69.63
2023-05-20T07:31:33.924Z,70.86
2023-05-20T07:34:01.564Z,71.01
2023-05-20T07:36:29.955Z,71.71
2023-05-20T07:39:03.522Z,72.04
2023-05-20T07:41:40.574Z,73.51
2023-05-20T07:44:19.515Z,74.29
2023-05-20T07:50:11.448Z,73.78
2023-05-20T07:55:10.244Z,71.91
2023-05-20T07:57:38.257Z,72.28
2023-05-20T08:00:08.363Z,72.10
2023-05-20T08:02:36.708Z,72.03
2023-05-20T08:05:06.255Z,71.42
2023-05-20T08:07:34.119Z,71.66
2023-05-20T08:10:07.118Z,70.93
2023-05-20T08:12:34.600Z,70.83
2023-05-20T08:15:02.433Z,70.77
2023-05-20T08:17:30.486Z,71.35
2023-05-20T08:20:00.958Z,71.54
2023-05-20T08:22:33.496Z,72.00
2023-05-20T08:25:00.968Z,72.60
2023-05-20T08:27:28.880Z,73.28
2023-05-20T08:29:57.274Z,73.92
2023-05-20T08:32:34.081Z,74.11
2023-05-20T08:35:02.274Z,75.50
2023-05-20T08:37:30.144Z,76.08
2023-05-20T08:39:58.312Z,76.04
2023-05-20T08:42:26.965Z,76.01
2023-05-20T08:44:55.130Z,76.12
2023-05-20T08:47:22.776Z,76.26
2023-05-20T08:49:50.749Z,76.39
2023-05-20T08:52:30.598Z,77.58
2023-05-20T08:54:58.116Z,77.94
2023-05-20T08:57:26.050Z,79.27
2023-05-20T08:59:54.399Z,80.02
2023-05-20T09:02:22.688Z,80.23
2023-05-20T09:04:51.404Z,80.40
2023-05-20T09:07:29.159Z,82.28
2023-05-20T09:09:57.231Z,83.22
2023-05-20T09:12:25.109Z,84.17
2023-05-20T09:14:53.082Z,84.80
2023-05-20T09:17:40.090Z,85.32
2023-05-20T09:20:12.341Z,85.04
2023-05-20T09:22:39.703Z,84.83
2023-05-20T09:25:11.564Z,84.87
2023-05-20T09:27:40.816Z,85.46
2023-05-20T09:30:12.681Z,84.71
2023-05-20T09:32:40.341Z,83.82
2023-05-20T09:35:10.161Z,83.73
2023-05-20T09:37:38.194Z,82.76
2023-05-20T09:40:10.092Z,82.41
2023-05-20T09:42:48.074Z,81.86
2023-05-20T09:45:17.346Z,81.69
2023-05-20T09:47:45.057Z,81.02
2023-05-20T09:50:13.092Z,80.54
2023-05-20T09:52:40.631Z,80.64
2023-05-20T09:55:10.617Z,81.11
2023-05-20T09:57:38.746Z,80.85
2023-05-20T10:00:06.392Z,81.59
2023-05-20T10:02:34.428Z,80.46
2023-05-20T10:05:04.605Z,80.06
2023-05-20T10:08:05.024Z,80.74
2023-05-20T10:10:55.967Z,79.63
2023-05-20T10:13:42.553Z,79.53
2023-05-20T10:16:33.755Z,79.49
2023-05-20T10:19:06.197Z,78.64
2023-05-20T10:22:14.868Z,78.82
2023-05-20T10:25:01.556Z,78.11
2023-05-20T10:28:01.091Z,78.12
2023-05-20T10:30:36.406Z,78.52
2023-05-20T10:33:05.863Z,77.98
2023-05-20T10:35:33.955Z,77.72
2023-05-20T10:38:12.433Z,78.08
2023-05-20T10:40:43.248Z,78.08
2023-05-20T10:43:15.231Z,78.45
2023-05-20T10:45:53.541Z,78.03
2023-05-20T10:48:51.345Z,77.09
2023-05-20T10:51:19.426Z,73.08
2023-05-20T10:53:46.692Z,73.10
2023-05-20T10:56:40.616Z,70.74
2023-05-20T10:59:25.244Z,71.10
2023-05-20T11:01:53.338Z,70.00
2023-05-20T11:04:20.460Z,70.31
2023-05-20T11:06:55.887Z,69.34
2023-05-20T11:09:23.439Z,69.02
2023-05-20T11:11:51.454Z,69.55
2023-05-20T11:14:20.602Z,70.30
2023-05-20T11:16:56.116Z,69.91
2023-05-20T11:19:23.850Z,69.20
2023-05-20T11:21:51.602Z,69.85
2023-05-20T11:24:28.519Z,68.40
2023-05-20T11:26:57.629Z,68.71
2023-05-20T11:29:26.382Z,68.83
2023-05-20T11:31:54.356Z,68.05
2023-05-20T11:34:24.996Z,68.64
2023-05-20T11:37:11.868Z,69.70
2023-05-20T11:39:39.805Z,69.78
2023-05-20T11:42:08.007Z,69.19
2023-05-20T11:44:35.577Z,69.33
2023-05-20T11:47:03.410Z,69.04
2023-05-20T11:49:31.312Z,68.80
2023-05-20T11:51:58.946Z,69.07
2023-05-20T11:54:26.753Z,69.11
2023-05-20T11:56:57.904Z,68.61
2023-05-20T11:59:25.816Z,69.16
2023-05-20T12:02:03.250Z,69.86
2023-05-20T12:04:31.302Z,70.00
2023-05-20T12:06:59.340Z,69.60
2023-05-20T12:09:26.989Z,69.19
2023-05-20T12:11:56.897Z,68.63
2023-05-20T12:14:24.863Z,68.96
2023-05-20T12:16:56.384Z,68.46
2023-05-20T12:19:24.958Z,69.19
2023-05-20T12:21:53.753Z,69.15
2023-05-20T12:24:21.428Z,69.19
2023-05-20T12:26:48.500Z,69.75
2023-05-20T12:29:16.096Z,69.73
2023-05-20T12:31:43.967Z,69.44
2023-05-20T12:34:11.957Z,69.19
2023-05-20T12:36:39.937Z,68.79
2023-05-20T12:39:07.615Z,69.19
2023-05-20T12:41:35.580Z,67.85
2023-05-20T12:44:03.268Z,67.78
2023-05-20T12:46:31.370Z,67.55
2023-05-20T12:48:58.952Z,67.45
2023-05-20T12:51:26.981Z,67.26
2023-05-20T12:53:58.828Z,66.74
2023-05-20T12:56:26.495Z,66.50
2023-05-20T12:58:54.345Z,66.83
2023-05-20T13:01:22.301Z,67.57
2023-05-20T13:03:53.519Z,67.43
2023-05-20T13:06:20.720Z,66.05
2023-05-20T13:08:48.860Z,66.02
2023-05-20T13:11:16.534Z,65.37
2023-05-20T13:13:44.610Z,64.41
2023-05-20T13:16:12.648Z,63.94
2023-05-20T13:18:40.532Z,64.21
2023-05-20T13:21:08.830Z,64.95
2023-05-20T13:23:37.207Z,65.24
2023-05-20T13:26:05.413Z,66.16
2023-05-20T13:28:33.415Z,66.04
2023-05-20T13:31:02.781Z,66.59
2023-05-20T13:33:30.760Z,67.24
2023-05-20T13:35:58.725Z,66.55
2023-05-20T13:38:26.279Z,66.77
2023-05-20T13:40:54.205Z,68.28
2023-05-20T13:43:21.828Z,68.68
2023-05-20T13:45:49.860Z,68.35
2023-05-20T13:48:17.642Z,68.66
2023-05-20T13:50:45.736Z,69.91
2023-05-20T13:53:13.952Z,69.52
2023-05-20T13:55:41.602Z,70.14
2023-05-20T13:58:12.542Z,70.31
2023-05-20T14:00:40.823Z,69.03
2023-05-20T14:03:10.462Z,69.92
2023-05-20T14:05:38.865Z,70.32
2023-05-20T14:08:06.720Z,70.12
2023-05-20T14:10:34.794Z,70.12
2023-05-20T14:13:02.549Z,70.45
2023-05-20T14:15:32.920Z,69.62
2023-05-20T14:18:00.986Z,70.17
2023-05-20T14:20:28.882Z,69.04
2023-05-20T14:22:57.035Z,68.58
2023-05-20T14:25:25.313Z,68.37
2023-05-20T14:27:53.177Z,67.40
2023-05-20T14:30:21.033Z,64.77
2023-05-20T14:32:48.740Z,63.75
2023-05-20T14:35:18.707Z,63.51
2023-05-20T14:37:46.481Z,64.61
2023-05-20T14:40:15.394Z,66.28
2023-05-20T14:42:43.187Z,66.33
2023-05-20T14:45:12.515Z,67.14
2023-05-20T14:47:40.306Z,68.13
2023-05-20T14:50:09.688Z,68.11
2023-05-20T14:52:37.770Z,68.22
2023-05-20T14:55:08.676Z,69.01
2023-05-20T14:57:36.538Z,69.16
2023-05-20T15:00:05.328Z,69.80
2023-05-20T15:02:33.612Z,70.53
2023-05-20T15:05:01.548Z,70.96
2023-05-20T15:07:37.063Z,71.51
2023-05-20T15:10:06.638Z,72.05
2023-05-20T15:12:34.739Z,73.08
2023-05-20T15:15:02.344Z,74.07
2023-05-20T15:17:30.893Z,74.36
2023-05-20T15:20:09.947Z,75.31
2023-05-20T15:22:38.248Z,75.75
2023-05-20T15:25:06.835Z,76.12
2023-05-20T15:27:34.825Z,76.73
2023-05-20T15:30:02.979Z,76.55
2023-05-20T15:32:30.925Z,76.66
2023-05-20T15:35:18.476Z,75.82
2023-05-20T15:37:45.968Z,75.76
2023-05-20T15:40:14.413Z,75.68
2023-05-20T15:42:42.313Z,76.09
2023-05-20T15:45:13.047Z,75.54
2023-05-20T15:47:40.851Z,75.47
2023-05-20T15:50:12.728Z,74.45
2023-05-20T15:52:40.562Z,74.00
2023-05-20T15:55:11.014Z,74.55
2023-05-20T15:57:38.571Z,73.67
2023-05-20T16:00:12.448Z,74.21
2023-05-20T16:02:41.453Z,74.61
2023-05-20T16:05:10.656Z,74.52
2023-05-20T16:07:37.964Z,74.52
2023-05-20T16:10:08.430Z,74.08
2023-05-20T16:12:36.693Z,73.13
2023-05-20T16:15:05.660Z,73.15
2023-05-20T16:17:34.013Z,73.59
2023-05-20T16:20:02.024Z,73.17
2023-05-20T16:22:29.925Z,72.93
2023-05-20T16:24:58.165Z,73.72
2023-05-20T16:27:25.602Z,73.58
2023-05-20T16:29:53.877Z,74.29
2023-05-20T16:32:22.031Z,74.56
2023-05-20T16:34:50.496Z,74.52
2023-05-20T16:37:18.682Z,74.09
2023-05-20T16:39:46.431Z,74.31
2023-05-20T16:42:14.490Z,74.74
2023-05-20T16:44:42.174Z,74.95
2023-05-20T16:47:10.164Z,75.10
2023-05-20T16:49:38.024Z,75.17
2023-05-20T16:52:08.751Z,75.22
2023-05-20T16:54:36.458Z,75.37
2023-05-20T16:57:08.140Z,75.78
2023-05-20T16:59:36.170Z,75.83
2023-05-20T17:02:03.813Z,75.36
2023-05-20T17:04:31.508Z,75.21
2023-05-20T17:07:01.773Z,75.35
2023-05-20T17:09:30.048Z,75.63
2023-05-20T17:11:58.304Z,75.78
2023-05-20T17:14:26.077Z,76.04
2023-05-20T17:16:53.971Z,76.58
2023-05-20T17:19:22.058Z,76.98
2023-05-20T17:21:49.789Z,77.24
2023-05-20T17:24:17.364Z,77.45
2023-05-20T17:26:44.883Z,77.46
2023-05-20T17:29:13.290Z,77.53
2023-05-20T17:31:40.906Z,77.99
2023-05-20T17:34:08.504Z,78.69
2023-05-20T17:36:36.474Z,79.50
2023-05-20T17:39:04.648Z,79.73
2023-05-20T17:41:32.279Z,80.16
2023-05-20T17:44:01.554Z,80.04
2023-05-20T17:46:29.857Z,79.79
2023-05-20T17:48:57.509Z,80.21
2023-05-20T17:51:25.500Z,80.51
2023-05-20T17:53:53.533Z,81.10
2023-05-20T17:56:23.584Z,81.70
2023-05-20T17:58:51.544Z,81.87
2023-05-20T18:01:19.559Z,82.05
2023-05-20T18:03:47.785Z,82.43
2023-05-20T18:06:15.404Z,82.28
2023-05-20T18:08:43.346Z,82.44
2023-05-20T18:11:11.068Z,82.54
2023-05-20T18:13:38.974Z,83.33
2023-05-20T18:16:08.059Z,82.83
2023-05-20T18:18:35.904Z,83.50
2023-05-20T18:21:06.790Z,83.94
2023-05-20T18:23:49.280Z,84.15
2023-05-20T18:26:17.329Z,83.98
2023-05-20T18:28:45.023Z,83.87
2023-05-20T18:31:13.220Z,83.28
2023-05-20T18:33:41.042Z,83.35
2023-05-20T18:36:08.541Z,83.90
2023-05-20T18:38:36.549Z,83.80
2023-05-20T18:41:05.583Z,83.24
2023-05-20T18:43:49.036Z,82.15
2023-05-20T18:46:16.783Z,83.32
2023-05-20T18:48:44.943Z,83.76
2023-05-20T18:51:12.887Z,83.49
2023-05-20T18:53:40.859Z,83.72
2023-05-20T18:56:09.196Z,84.04
2023-05-20T18:58:37.304Z,84.83
2023-05-20T19:01:05.741Z,84.64
2023-05-20T19:03:33.744Z,84.77
2023-05-20T19:06:01.355Z,85.22
2023-05-20T19:08:29.626Z,85.75
2023-05-20T19:10:57.166Z,86.03
2023-05-20T19:13:25.096Z,85.92
2023-05-20T19:15:52.261Z,86.43
2023-05-20T19:18:21.519Z,86.90
2023-05-20T19:20:49.662Z,86.65
2023-05-20T19:23:17.718Z,86.85
2023-05-20T19:25:45.496Z,87.25
2023-05-20T19:28:14.210Z,87.12
2023-05-20T19:30:41.835Z,87.29
2023-05-20T19:33:10.302Z,87.50
2023-05-20T19:35:38.616Z,87.48
2023-05-20T19:38:07.238Z,88.03
2023-05-20T19:40:35.613Z,88.43
2023-05-20T19:43:03.215Z,88.75
2023-05-20T19:45:31.192Z,88.64
2023-05-20T19:47:59.020Z,89.00
2023-05-20T19:50:27.390Z,88.98
2023-05-20T19:52:55.684Z,89.26
2023-05-20T19:55:23.638Z,89.29
2023-05-20T19:57:53.942Z,89.05
2023-05-20T20:00:31.447Z,89.32
2023-05-20T20:03:00.186Z,89.26
2023-05-20T20:05:28.128Z,88.89
2023-05-20T20:07:56.270Z,88.91
2023-05-20T20:10:24.869Z,88.94
2023-05-20T20:12:52.874Z,88.94
2023-05-20T20:15:20.726Z,89.10
2023-05-20T20:17:52.546Z,89.40
2023-05-20T20:20:20.676Z,89.33
2023-05-20T20:22:48.622Z,89.11
2023-05-20T20:25:17.609Z,89.21
2023-05-20T20:27:45.885Z,89.27
2023-05-20T20:30:15.213Z,89.49
2023-05-20T20:32:43.297Z,89.02
2023-05-20T20:35:11.536Z,88.38
2023-05-20T20:37:39.491Z,88.69
2023-05-20T20:40:13.280Z,88.41
2023-05-20T20:42:45.314Z,88.59
2023-05-20T20:45:13.464Z,88.00
2023-05-20T20:47:41.747Z,88.63
2023-05-20T20:50:11.634Z,88.80
2023-05-20T20:52:42.968Z,88.33
2023-05-20T20:55:12.510Z,88.17
2023-05-20T20:57:42.002Z,88.15
2023-05-20T21:00:20.684Z,88.07
2023-05-20T21:02:48.351Z,88.14
2023-05-20T21:05:16.973Z,88.34
2023-05-20T21:07:49.307Z,88.36
2023-05-20T21:10:20.794Z,88.96
2023-05-20T21:12:48.453Z,88.90
2023-05-20T21:15:16.595Z,88.76
2023-05-20T21:17:44.640Z,89.04
2023-05-20T21:20:14.248Z,89.04
2023-05-20T21:22:41.917Z,88.90
2023-05-20T21:25:10.541Z,89.44
2023-05-20T21:27:38.027Z,90.32
2023-05-20T21:30:08.461Z,90.56
2023-05-20T21:32:36.011Z,90.32
2023-05-20T21:35:06.419Z,90.50
2023-05-20T21:37:34.021Z,90.84
2023-05-20T21:40:02.010Z,90.94
2023-05-20T21:42:29.964Z,91.13
2023-05-20T21:44:57.933Z,91.44
2023-05-20T21:47:25.513Z,91.39
2023-05-20T21:49:53.483Z,91.22
2023-05-20T21:52:21.070Z,91.38
2023-05-20T21:54:48.910Z,91.71
2023-05-20T21:57:16.764Z,91.42
2023-05-20T21:59:44.779Z,91.19
2023-05-20T22:02:12.672Z,91.11
2023-05-20T22:04:40.820Z,91.54
2023-05-20T22:07:09.177Z,92.48
2023-05-20T22:09:35.965Z,92.64
2023-05-20T22:12:05.025Z,93.41
2023-05-20T22:14:33.066Z,94.15
2023-05-20T22:17:00.979Z,94.08
2023-05-20T22:19:28.538Z,94.46
2023-05-20T22:21:56.166Z,94.96
2023-05-20T22:24:24.137Z,95.59
2023-05-20T22:26:52.099Z,95.80
2023-05-20T22:29:20.361Z,96.43
2023-05-20T22:31:48.262Z,96.89
2023-05-20T22:34:16.265Z,97.43
2023-05-20T22:36:45.344Z,98.45
2023-05-20T22:39:13.457Z,98.44
2023-05-20T22:41:41.021Z,98.69
2023-05-20T22:44:08.574Z,98.93
2023-05-20T22:46:36.651Z,98.70
2023-05-20T22:49:04.530Z,98.51
2023-05-20T22:51:34.473Z,98.65
2023-05-20T22:54:01.922Z,98.12
2023-05-20T22:56:29.750Z,97.90
2023-05-20T22:58:57.660Z,97.48
2023-05-20T23:01:25.787Z,96.99
2023-05-20T23:03:53.868Z,96.74
2023-05-20T23:06:22.845Z,96.92
2023-05-20T23:08:50.108Z,97.29
2023-05-20T23:11:18.084Z,97.00
2023-05-20T23:13:46.354Z,96.89
2023-05-20T23:16:16.751Z,97.10
2023-05-20T23:18:44.782Z,96.62
2023-05-20T23:21:12.324Z,96.39
2023-05-20T23:23:40.128Z,96.32
2023-05-20T23:26:07.894Z,96.21
2023-05-20T23:28:35.949Z,96.43
2023-05-20T23:31:03.689Z,95.76
2023-05-20T23:33:31.275Z,95.26
2023-05-20T23:35:59.299Z,94.85
2023-05-20T23:38:27.208Z,94.23
2023-05-20T23:40:55.445Z,94.23
2023-05-20T23:43:24.872Z,94.78
2023-05-20T23:45:52.945Z,94.71
2023-05-20T23:48:20.787Z,93.72
2023-05-20T23:50:48.990Z,93.21
2023-05-20T23:53:17.111Z,92.66
2023-05-20T23:55:45.358Z,92.71
2023-05-20T23:58:12.932Z,92.24
